createdAt,value
2022-11-12T00:00:55.910Z,6.03
2022-11-12T00:03:33.235Z,6.01
2022-11-12T00:06:01.866Z,6.01
2022-11-12T00:08:28.843Z,5.98
2022-11-12T00:10:57.551Z,5.97
2022-11-12T00:13:25.096Z,5.94
2022-11-12T00:16:01.415Z,5.91
2022-11-12T00:18:28.216Z,5.87
2022-11-12T00:21:02.960Z,5.84
2022-11-12T00:23:37.278Z,5.82
2022-11-12T00:26:04.827Z,5.80
2022-11-12T00:28:37.543Z,5.78
2022-11-12T00:31:12.469Z,5.76
2022-11-12T00:33:40.938Z,5.77
2022-11-12T00:36:07.887Z,5.78
2022-11-12T00:38:36.616Z,5.75
2022-11-12T00:41:09.952Z,5.73
2022-11-12T00:43:36.399Z,5.72
2022-11-12T00:46:03.035Z,5.70
2022-11-12T00:48:29.508Z,5.69
2022-11-12T00:51:03.662Z,5.67
2022-11-12T00:53:30.001Z,5.65
2022-11-12T00:56:10.531Z,5.65
2022-11-12T00:58:36.881Z,5.64
2022-11-12T01:01:12.285Z,5.61
2022-11-12T01:03:40.373Z,5.58
2022-11-12T01:06:15.574Z,5.55
2022-11-12T01:08:42.929Z,5.52
2022-11-12T01:11:15.341Z,5.51
2022-11-12T01:13:45.040Z,5.52
2022-11-12T01:16:20.395Z,5.50
2022-11-12T01:18:52.052Z,5.51
2022-11-12T01:21:18.499Z,5.49
2022-11-12T01:23:44.859Z,5.44
2022-11-12T01:26:15.044Z,5.41
2022-11-12T01:28:43.487Z,5.39
2022-11-12T01:31:20.092Z,5.39
2022-11-12T01:33:48.464Z,5.43
2022-11-12T01:36:16.637Z,5.42
2022-11-12T01:38:48.415Z,5.38
2022-11-12T01:41:19.675Z,5.38
2022-11-12T01:43:46.330Z,5.40
2022-11-12T01:46:27.418Z,5.43
2022-11-12T01:49:00.992Z,5.45
2022-11-12T01:51:37.523Z,5.45
2022-11-12T01:54:07.162Z,5.45
2022-11-12T01:56:37.334Z,5.44
2022-11-12T01:59:23.231Z,5.45
2022-11-12T02:01:50.689Z,5.45
2022-11-12T02:04:20.807Z,5.47
2022-11-12T02:06:57.073Z,5.49
2022-11-12T02:09:25.241Z,5.51
2022-11-12T02:12:00.249Z,5.50
2022-11-12T02:14:27.004Z,5.52
2022-11-12T02:16:53.817Z,5.52
2022-11-12T02:19:22.257Z,5.52
2022-11-12T02:21:49.715Z,5.50
2022-11-12T02:24:15.988Z,5.47
2022-11-12T02:26:52.812Z,5.46
2022-11-12T02:29:22.443Z,5.43
2022-11-12T02:31:50.856Z,5.39
2022-11-12T02:34:19.304Z,5.40
2022-11-12T02:36:46.739Z,5.35
2022-11-12T02:39:14.180Z,5.31
2022-11-12T02:41:48.732Z,5.32
2022-11-12T02:44:15.091Z,5.25
2022-11-12T02:46:42.473Z,5.23
2022-11-12T02:49:13.259Z,5.23
2022-11-12T02:51:39.628Z,5.21
2022-11-12T02:54:06.977Z,5.20
2022-11-12T02:56:40.476Z,5.23
2022-11-12T02:59:14.037Z,5.19
2022-11-12T03:01:53.505Z,5.18
2022-11-12T03:04:21.940Z,5.13
2022-11-12T03:06:53.470Z,5.11
2022-11-12T03:09:27.327Z,5.05
2022-11-12T03:12:14.218Z,5.09
2022-11-12T03:14:40.975Z,5.09
2022-11-12T03:17:10.430Z,5.04
2022-11-12T03:19:38.877Z,5.00
2022-11-12T03:22:10.218Z,4.99
2022-11-12T03:24:47.850Z,4.99
2022-11-12T03:27:29.566Z,5.01
2022-11-12T03:29:57.952Z,5.00
2022-11-12T03:32:28.462Z,4.99
2022-11-12T03:35:13.412Z,5.01
2022-11-12T03:37:39.764Z,5.00
2022-11-12T03:40:08.810Z,5.00
2022-11-12T03:42:35.172Z,5.01
2022-11-12T03:45:01.583Z,5.00
2022-11-12T03:47:32.046Z,4.98
2022-11-12T03:49:58.511Z,4.97
2022-11-12T03:52:51.493Z,4.95
2022-11-12T03:55:19.606Z,4.91
2022-11-12T03:57:48.597Z,4.81
2022-11-12T04:00:34.233Z,4.77
2022-11-12T04:03:06.666Z,4.76
2022-11-12T04:06:05.959Z,4.76
2022-11-12T04:08:38.442Z,4.78
2022-11-12T04:11:14.327Z,4.75
2022-11-12T04:13:47.572Z,4.76
2022-11-12T04:16:41.298Z,4.76
2022-11-12T04:19:29.939Z,4.76
2022-11-12T04:22:04.916Z,4.74
2022-11-12T04:24:54.408Z,4.73
2022-11-12T04:27:34.735Z,4.71
2022-11-12T04:30:16.865Z,4.74
2022-11-12T04:32:54.747Z,4.71
2022-11-12T04:35:23.690Z,4.73
2022-11-12T04:37:52.196Z,4.73
2022-11-12T04:40:41.581Z,4.77
2022-11-12T04:43:36.187Z,4.77
2022-11-12T04:46:05.274Z,4.77
2022-11-12T04:48:36.743Z,4.77
2022-11-12T04:51:25.065Z,4.78
2022-11-12T04:54:27.897Z,4.80
2022-11-12T04:56:58.458Z,4.77
2022-11-12T04:59:32.843Z,4.72
2022-11-12T05:02:02.510Z,4.70
2022-11-12T05:04:29.247Z,4.69
2022-11-12T05:06:56.974Z,4.68
2022-11-12T05:09:29.069Z,4.65
2022-11-12T05:12:00.907Z,4.61
2022-11-12T05:14:33.667Z,4.59
2022-11-12T05:17:00.195Z,4.60
2022-11-12T05:19:26.665Z,4.59
2022-11-12T05:22:06.259Z,4.55
2022-11-12T05:24:42.887Z,4.54
2022-11-12T05:27:32.563Z,4.50
2022-11-12T05:30:04.300Z,4.48
2022-11-12T05:32:31.744Z,4.43
2022-11-12T05:34:58.196Z,4.40
2022-11-12T05:37:30.432Z,4.39
2022-11-12T05:39:56.929Z,4.36
2022-11-12T05:42:35.536Z,4.34
2022-11-12T05:45:04.364Z,4.34
2022-11-12T05:47:37.977Z,4.31
2022-11-12T05:50:04.780Z,4.29
2022-11-12T05:52:35.520Z,4.29
2022-11-12T05:55:07.340Z,4.31
2022-11-12T05:57:33.807Z,4.29
2022-11-12T06:00:07.321Z,4.29
2022-11-12T06:02:34.810Z,4.30
2022-11-12T06:05:01.368Z,4.28
2022-11-12T06:07:29.895Z,4.25
2022-11-12T06:09:56.290Z,4.22
2022-11-12T06:12:24.875Z,4.19
2022-11-12T06:15:02.741Z,4.17
2022-11-12T06:17:43.551Z,4.17
2022-11-12T06:20:10.977Z,4.17
2022-11-12T06:22:56.704Z,4.16
2022-11-12T06:25:35.627Z,4.13
2022-11-12T06:28:11.234Z,4.12
2022-11-12T06:30:42.748Z,4.13
2022-11-12T06:33:12.351Z,4.14
2022-11-12T06:36:05.447Z,4.13
2022-11-12T06:39:01.233Z,4.16
2022-11-12T06:41:37.926Z,4.17
2022-11-12T06:44:09.465Z,4.18
2022-11-12T06:46:37.919Z,4.19
2022-11-12T06:49:07.654Z,4.17
2022-11-12T06:51:34.480Z,4.17
2022-11-12T06:54:05.411Z,4.18
2022-11-12T06:56:37.172Z,4.17
2022-11-12T06:59:04.621Z,4.17
2022-11-12T07:01:37.493Z,4.20
2022-11-12T07:04:04.172Z,4.20
2022-11-12T07:06:37.846Z,4.19
2022-11-12T07:09:05.489Z,4.21
2022-11-12T07:11:32.031Z,4.21
2022-11-12T07:14:05.949Z,4.18
2022-11-12T07:16:39.512Z,4.17
2022-11-12T07:19:08.960Z,4.16
2022-11-12T07:21:37.439Z,4.16
2022-11-12T07:24:04.992Z,4.16
2022-11-12T07:26:31.515Z,4.16
2022-11-12T07:28:59.019Z,4.17
2022-11-12T07:31:25.971Z,4.17
2022-11-12T07:33:52.494Z,4.19
2022-11-12T07:36:20.799Z,4.18
2022-11-12T07:38:52.631Z,4.19
2022-11-12T07:41:35.179Z,4.20
2022-11-12T07:44:01.668Z,4.23
2022-11-12T07:46:29.284Z,4.24
2022-11-12T07:49:00.064Z,4.29
2022-11-12T07:51:43.665Z,4.32
2022-11-12T07:54:10.236Z,4.35
2022-11-12T07:56:51.008Z,4.37
2022-11-12T07:59:23.620Z,4.40
2022-11-12T08:02:00.324Z,4.46
2022-11-12T08:05:13.740Z,4.50
2022-11-12T08:07:51.118Z,4.54
2022-11-12T08:10:22.775Z,4.58
2022-11-12T08:12:56.148Z,4.61
2022-11-12T08:16:07.429Z,4.68
2022-11-12T08:19:12.266Z,4.73
2022-11-12T08:21:38.666Z,4.80
2022-11-12T08:24:21.430Z,4.87
2022-11-12T08:26:47.870Z,4.93
2022-11-12T08:29:23.339Z,5.00
2022-11-12T08:32:19.720Z,5.11
2022-11-12T08:34:46.221Z,5.24
2022-11-12T08:37:13.477Z,5.38
2022-11-12T08:39:59.275Z,5.58
2022-11-12T08:42:27.878Z,5.75
2022-11-12T08:45:01.546Z,5.85
2022-11-12T08:47:29.963Z,6.00
2022-11-12T08:50:01.481Z,6.09
2022-11-12T08:52:34.022Z,6.26
2022-11-12T08:55:00.355Z,6.38
2022-11-12T08:57:51.561Z,6.42
2022-11-12T09:00:28.903Z,6.44
2022-11-12T09:02:55.346Z,6.45
2022-11-12T09:05:21.848Z,6.47
2022-11-12T09:07:50.269Z,6.50
2022-11-12T09:10:27.875Z,6.52
2022-11-12T09:12:58.260Z,6.58
2022-11-12T09:15:37.448Z,6.59
2022-11-12T09:18:07.255Z,6.63
2022-11-12T09:20:35.711Z,6.67
2022-11-12T09:23:08.042Z,6.76
2022-11-12T09:25:36.499Z,6.86
2022-11-12T09:28:23.839Z,6.92
2022-11-12T09:31:07.232Z,6.97
2022-11-12T09:33:34.099Z,7.01
2022-11-12T09:36:40.040Z,7.06
2022-11-12T09:39:12.269Z,7.19
2022-11-12T09:41:40.704Z,7.26
2022-11-12T09:44:11.548Z,7.33
2022-11-12T09:47:08.040Z,7.41
2022-11-12T09:50:12.886Z,7.51
2022-11-12T09:52:43.334Z,7.59
2022-11-12T09:55:41.930Z,7.66
2022-11-12T09:58:12.871Z,7.68
2022-11-12T10:01:00.115Z,7.70
2022-11-12T10:03:49.568Z,7.75
2022-11-12T10:06:23.946Z,7.80
2022-11-12T10:08:57.409Z,7.86
2022-11-12T10:11:52.488Z,7.91
2022-11-12T10:14:43.567Z,7.96
2022-11-12T10:17:19.649Z,8.06
2022-11-12T10:19:55.294Z,8.13
2022-11-12T10:22:49.228Z,8.21
2022-11-12T10:25:19.567Z,8.32
2022-11-12T10:27:49.243Z,8.39
2022-11-12T10:30:21.867Z,8.43
2022-11-12T10:32:50.343Z,8.50
2022-11-12T10:35:20.955Z,8.56
2022-11-12T10:38:02.411Z,8.66
2022-11-12T10:40:40.650Z,8.78
2022-11-12T10:43:16.194Z,8.88
2022-11-12T10:45:44.173Z,8.93
2022-11-12T10:48:33.237Z,8.98
2022-11-12T10:51:37.334Z,9.02
2022-11-12T10:54:29.411Z,9.09
2022-11-12T10:57:32.412Z,9.15
2022-11-12T11:00:14.186Z,9.23
2022-11-12T11:02:55.840Z,9.24
2022-11-12T11:05:51.125Z,9.26
2022-11-12T11:08:35.908Z,9.32
2022-11-12T11:11:21.779Z,9.37
2022-11-12T11:13:57.072Z,9.40
2022-11-12T11:16:50.219Z,9.48
2022-11-12T11:19:17.871Z,9.51
2022-11-12T11:21:51.083Z,9.55
2022-11-12T11:24:51.747Z,9.62
2022-11-12T11:27:40.027Z,9.67
2022-11-12T11:30:15.397Z,9.72
2022-11-12T11:33:17.843Z,9.78
2022-11-12T11:35:56.288Z,9.83
2022-11-12T11:38:39.115Z,9.89
2022-11-12T11:41:21.684Z,9.94
2022-11-12T11:44:00.633Z,9.97
2022-11-12T11:46:53.213Z,10.06
2022-11-12T11:49:38.198Z,10.15
2022-11-12T11:52:40.062Z,10.19
2022-11-12T11:55:20.652Z,10.21
2022-11-12T11:58:09.518Z,10.22
2022-11-12T12:01:32.264Z,10.27
2022-11-12T12:04:23.262Z,10.32
2022-11-12T12:07:16.822Z,10.34
2022-11-12T12:10:04.815Z,10.38
2022-11-12T12:12:46.145Z,10.40
2022-11-12T12:15:43.097Z,10.43
2022-11-12T12:18:43.679Z,10.47
2022-11-12T12:21:16.819Z,10.49
2022-11-12T12:23:48.318Z,10.52
2022-11-12T12:26:22.915Z,10.52
2022-11-12T12:29:14.618Z,10.55
2022-11-12T12:31:48.305Z,10.60
2022-11-12T12:34:23.168Z,10.64
2022-11-12T12:36:57.452Z,10.66
2022-11-12T12:39:41.282Z,10.70
2022-11-12T12:42:18.395Z,10.72
2022-11-12T12:45:00.810Z,10.77
2022-11-12T12:47:43.265Z,10.79
2022-11-12T12:50:15.662Z,10.80
2022-11-12T12:53:03.706Z,10.86
2022-11-12T12:55:50.317Z,10.93
2022-11-12T12:58:52.197Z,11.09
2022-11-12T13:01:31.366Z,11.12
2022-11-12T13:04:03.284Z,11.09
2022-11-12T13:06:41.048Z,11.10
2022-11-12T13:09:24.302Z,11.08
2022-11-12T13:12:04.254Z,11.09
2022-11-12T13:14:36.763Z,11.11
2022-11-12T13:17:07.386Z,11.13
2022-11-12T13:19:37.742Z,11.13
2022-11-12T13:22:19.319Z,11.15
2022-11-12T13:25:19.161Z,11.17
2022-11-12T13:27:45.503Z,11.19
2022-11-12T13:30:16.244Z,11.27
2022-11-12T13:32:48.866Z,11.33
2022-11-12T13:35:37.246Z,11.33
2022-11-12T13:38:11.986Z,11.34
2022-11-12T13:40:47.167Z,11.36
2022-11-12T13:44:05.272Z,11.37
2022-11-12T13:46:35.894Z,11.36
2022-11-12T13:49:09.179Z,11.38
2022-11-12T13:51:51.945Z,11.40
2022-11-12T13:54:43.392Z,11.47
2022-11-12T13:57:27.983Z,11.45
2022-11-12T14:00:16.950Z,11.45
2022-11-12T14:03:07.266Z,11.51
2022-11-12T14:06:15.478Z,11.58
2022-11-12T14:09:29.778Z,11.60
2022-11-12T14:12:35.959Z,11.62
2022-11-12T14:15:30.606Z,11.57
2022-11-12T14:18:13.954Z,11.51
2022-11-12T14:20:41.580Z,11.50
2022-11-12T14:23:23.121Z,11.49
2022-11-12T14:25:56.243Z,11.49
2022-11-12T14:28:35.630Z,11.48
2022-11-12T14:31:04.026Z,11.46
2022-11-12T14:33:37.622Z,11.42
2022-11-12T14:36:24.052Z,11.40
2022-11-12T14:39:11.363Z,11.36
2022-11-12T14:42:02.776Z,11.34
2022-11-12T14:44:39.292Z,11.30
2022-11-12T14:47:05.822Z,11.29
2022-11-12T14:49:45.369Z,11.27
2022-11-12T14:52:20.898Z,11.23
2022-11-12T14:54:51.415Z,11.21
2022-11-12T14:57:25.926Z,11.16
2022-11-12T14:59:53.834Z,11.14
2022-11-12T15:02:47.200Z,11.14
2022-11-12T15:05:20.634Z,11.13
2022-11-12T15:07:59.326Z,11.12
2022-11-12T15:10:34.784Z,11.08
2022-11-12T15:13:19.218Z,11.04
2022-11-12T15:15:56.523Z,10.99
2022-11-12T15:18:26.991Z,10.88
2022-11-12T15:21:05.763Z,10.80
2022-11-12T15:23:32.307Z,10.73
2022-11-12T15:26:00.440Z,10.65
2022-11-12T15:28:26.972Z,10.58
2022-11-12T15:31:01.528Z,10.53
2022-11-12T15:33:28.249Z,10.49
2022-11-12T15:36:00.305Z,10.47
2022-11-12T15:38:35.783Z,10.45
2022-11-12T15:41:02.819Z,10.44
2022-11-12T15:43:32.569Z,10.45
2022-11-12T15:45:59.324Z,10.39
2022-11-12T15:48:25.669Z,10.38
2022-11-12T15:50:52.121Z,10.32
2022-11-12T15:53:18.751Z,10.25
2022-11-12T15:55:45.635Z,10.21
2022-11-12T15:58:18.338Z,10.15
2022-11-12T16:00:45.215Z,10.09
2022-11-12T16:03:13.751Z,10.04
2022-11-12T16:05:40.116Z,9.97
2022-11-12T16:08:06.471Z,9.93
2022-11-12T16:10:33.175Z,9.90
2022-11-12T16:13:01.147Z,9.89
2022-11-12T16:15:27.705Z,9.85
2022-11-12T16:17:56.357Z,9.81
2022-11-12T16:20:29.164Z,9.81
2022-11-12T16:22:55.807Z,9.82
2022-11-12T16:25:27.859Z,9.83
2022-11-12T16:27:57.668Z,9.78
2022-11-12T16:30:32.582Z,9.72
2022-11-12T16:33:00.393Z,9.67
2022-11-12T16:35:29.733Z,9.63
2022-11-12T16:37:56.341Z,9.57
2022-11-12T16:40:28.297Z,9.54
2022-11-12T16:42:54.680Z,9.50
2022-11-12T16:45:23.444Z,9.47
2022-11-12T16:47:55.444Z,9.41
2022-11-12T16:50:26.707Z,9.38
2022-11-12T16:52:53.814Z,9.35
2022-11-12T16:55:21.606Z,9.27
2022-11-12T16:57:47.987Z,9.23
2022-11-12T17:00:17.116Z,9.21
2022-11-12T17:02:52.087Z,9.18
2022-11-12T17:05:21.830Z,9.13
2022-11-12T17:07:49.268Z,9.10
2022-11-12T17:10:16.833Z,9.09
2022-11-12T17:12:43.351Z,9.07
2022-11-12T17:15:10.225Z,9.03
2022-11-12T17:17:36.630Z,9.02
2022-11-12T17:20:03.681Z,8.98
2022-11-12T17:22:31.145Z,8.95
2022-11-12T17:24:57.514Z,8.90
2022-11-12T17:27:23.882Z,8.85
2022-11-12T17:29:50.384Z,8.83
2022-11-12T17:32:16.728Z,8.79
2022-11-12T17:34:44.326Z,8.77
2022-11-12T17:37:10.709Z,8.74
2022-11-12T17:39:37.129Z,8.70
2022-11-12T17:42:03.752Z,8.68
2022-11-12T17:44:30.110Z,8.64
2022-11-12T17:46:56.611Z,8.61
2022-11-12T17:49:22.934Z,8.57
2022-11-12T17:51:49.331Z,8.55
2022-11-12T17:54:15.688Z,8.53
2022-11-12T17:56:42.033Z,8.50
2022-11-12T17:59:08.839Z,8.48
2022-11-12T18:01:35.324Z,8.47
2022-11-12T18:04:01.935Z,8.45
2022-11-12T18:06:30.631Z,8.41
2022-11-12T18:08:59.201Z,8.38
2022-11-12T18:11:27.447Z,8.33
2022-11-12T18:13:54.784Z,8.33
2022-11-12T18:16:23.891Z,8.31
2022-11-12T18:18:50.431Z,8.29
2022-11-12T18:21:17.580Z,8.26
2022-11-12T18:23:44.874Z,8.25
2022-11-12T18:26:18.128Z,8.22
2022-11-12T18:28:45.197Z,8.21
2022-11-12T18:31:12.835Z,8.18
2022-11-12T18:33:46.116Z,8.15
2022-11-12T18:36:18.108Z,8.12
2022-11-12T18:38:46.754Z,8.11
2022-11-12T18:41:15.395Z,8.09
2022-11-12T18:43:41.816Z,8.06
2022-11-12T18:46:10.477Z,8.05
2022-11-12T18:48:38.450Z,8.01
2022-11-12T18:51:08.927Z,8.03
2022-11-12T18:53:36.348Z,7.97
2022-11-12T18:56:14.262Z,7.95
2022-11-12T18:58:40.713Z,7.94
2022-11-12T19:01:12.645Z,7.93
2022-11-12T19:03:39.128Z,7.90
2022-11-12T19:06:07.406Z,7.86
2022-11-12T19:08:34.211Z,7.85
2022-11-12T19:11:02.853Z,7.83
2022-11-12T19:13:31.077Z,7.81
2022-11-12T19:16:06.857Z,7.77
2022-11-12T19:18:33.861Z,7.75
2022-11-12T19:21:04.772Z,7.71
2022-11-12T19:23:32.616Z,7.68
2022-11-12T19:26:08.480Z,7.67
2022-11-12T19:28:35.004Z,7.65
2022-11-12T19:31:10.595Z,7.64
2022-11-12T19:33:36.967Z,7.62
2022-11-12T19:36:08.401Z,7.61
2022-11-12T19:38:34.866Z,7.60
2022-11-12T19:41:13.367Z,7.57
2022-11-12T19:43:43.051Z,7.54
2022-11-12T19:46:10.370Z,7.52
2022-11-12T19:48:38.879Z,7.50
2022-11-12T19:51:07.915Z,7.48
2022-11-12T19:53:36.340Z,7.45
2022-11-12T19:56:12.405Z,7.40
2022-11-12T19:58:38.981Z,7.37
2022-11-12T20:01:10.744Z,7.36
2022-11-12T20:03:38.042Z,7.34
2022-11-12T20:06:08.854Z,7.33
2022-11-12T20:08:35.588Z,7.34
2022-11-12T20:11:04.148Z,7.32
2022-11-12T20:13:30.540Z,7.30
2022-11-12T20:16:00.080Z,7.27
2022-11-12T20:18:27.176Z,7.26
2022-11-12T20:20:56.126Z,7.23
2022-11-12T20:23:25.240Z,7.20
2022-11-12T20:25:52.788Z,7.19
2022-11-12T20:28:19.775Z,7.16
2022-11-12T20:30:46.255Z,7.12
2022-11-12T20:33:15.713Z,7.09
2022-11-12T20:35:42.132Z,7.09
2022-11-12T20:38:08.593Z,7.08
2022-11-12T20:40:36.007Z,7.06
2022-11-12T20:43:02.393Z,7.05
2022-11-12T20:45:30.832Z,7.04
2022-11-12T20:47:57.193Z,7.03
2022-11-12T20:50:24.067Z,7.03
2022-11-12T20:52:52.523Z,6.98
2022-11-12T20:55:18.865Z,6.94
2022-11-12T20:57:47.330Z,6.88
2022-11-12T21:00:17.739Z,6.88
2022-11-12T21:02:46.416Z,6.87
2022-11-12T21:05:12.903Z,6.86
2022-11-12T21:07:39.323Z,6.86
2022-11-12T21:10:06.384Z,6.84
2022-11-12T21:12:33.100Z,6.81
2022-11-12T21:15:01.655Z,6.80
2022-11-12T21:17:28.017Z,6.81
2022-11-12T21:19:54.368Z,6.79
2022-11-12T21:22:20.737Z,6.78
2022-11-12T21:24:51.375Z,6.78
2022-11-12T21:27:17.848Z,6.76
2022-11-12T21:29:44.188Z,6.77
2022-11-12T21:32:11.621Z,6.74
2022-11-12T21:34:38.158Z,6.74
2022-11-12T21:37:05.576Z,6.73
2022-11-12T21:39:33.050Z,6.72
2022-11-12T21:42:00.505Z,6.71
2022-11-12T21:44:26.859Z,6.70
2022-11-12T21:46:54.244Z,6.69
2022-11-12T21:49:20.618Z,6.69
2022-11-12T21:51:47.010Z,6.65
2022-11-12T21:54:14.224Z,6.65
2022-11-12T21:56:45.076Z,6.64
2022-11-12T21:59:11.532Z,6.65
2022-11-12T22:01:37.880Z,6.65
2022-11-12T22:04:07.044Z,6.61
2022-11-12T22:06:36.360Z,6.61
2022-11-12T22:09:03.114Z,6.61
2022-11-12T22:11:29.608Z,6.60
2022-11-12T22:13:55.983Z,6.60
2022-11-12T22:16:29.311Z,6.58
2022-11-12T22:18:57.923Z,6.54
2022-11-12T22:21:38.483Z,6.52
2022-11-12T22:24:06.764Z,6.54
2022-11-12T22:26:33.223Z,6.56
2022-11-12T22:28:59.744Z,6.55
2022-11-12T22:31:29.782Z,6.55
2022-11-12T22:33:58.267Z,6.53
2022-11-12T22:36:27.669Z,6.50
2022-11-12T22:38:56.543Z,6.49
2022-11-12T22:41:30.178Z,6.46
2022-11-12T22:43:59.562Z,6.44
2022-11-12T22:46:28.542Z,6.42
2022-11-12T22:48:57.165Z,6.42
2022-11-12T22:51:26.530Z,6.42
2022-11-12T22:54:01.058Z,6.41
2022-11-12T22:56:28.390Z,6.40
2022-11-12T22:58:57.695Z,6.37
2022-11-12T23:01:32.152Z,6.38
2022-11-12T23:04:00.839Z,6.39
2022-11-12T23:06:28.907Z,6.39
2022-11-12T23:08:56.526Z,6.38
2022-11-12T23:11:26.140Z,6.36
2022-11-12T23:13:54.223Z,6.37
2022-11-12T23:16:24.083Z,6.36
2022-11-12T23:18:51.752Z,6.34
2022-11-12T23:21:20.537Z,6.33
2022-11-12T23:23:46.905Z,6.33
2022-11-12T23:26:17.443Z,6.31
2022-11-12T23:28:43.907Z,6.29
2022-11-12T23:31:13.954Z,6.25
2022-11-12T23:33:52.411Z,6.23
2022-11-12T23:36:21.046Z,6.23
2022-11-12T23:38:47.585Z,6.22
2022-11-12T23:41:17.243Z,6.21
2022-11-12T23:43:43.642Z,6.20
2022-11-12T23:46:12.699Z,6.19
2022-11-12T23:48:39.051Z,6.18
2022-11-12T23:51:17.806Z,6.17
2022-11-12T23:53:45.437Z,6.17
2022-11-12T23:56:15.927Z,6.15
2022-11-12T23:58:42.740Z,6.12
